Duquesne, Missouri
Current Conditions -  °F | °C
As of 2:53 PM on Thursday 23 Oct 2014 (Local Time) from KJLN Reporting Station
Broken Clouds Broken Clouds  
Wind Chill: 62°   Ceiling: 900
Heat Index: 62°   Visibility: 10mi
Dew Point: 57°   Wind: 10mph
Humidity: 84%   Direction: 200°SSW
Pressure: 30.11"   Gusts: NA
Location:  37.1074°N, 94.5218°W
Report Text: KJLN 231953Z 20009KT 10SM BKN009 17/14 A3011 RMK AO2 SLP193 T01670139
Loading
Personal Weather Stations






























Interactive Weather Map
Tropical Storm Tracking
New forecast layout! Learn more

10-Day Weather Forecast

Advertisements
Track Severe Weather on mobile